sensor_id;sensor_type;location;lat;lon;timestamp;pressure;altitude;pressure_sealevel;temperature;humidity
9091;BME280;4581;42.416;25.598;2023-04-21T00:01:12;66504.34;;;0.00;nan
9091;BME280;4581;42.416;25.598;2023-04-21T00:03:39;66504.34;;;0.00;nan
9091;BME280;4581;42.416;25.598;2023-04-21T00:06:07;66507.41;;;0.00;nan
9091;BME280;4581;42.416;25.598;2023-04-21T00:08:35;66513.50;;;0.00;nan
9091;BME280;4581;42.416;25.598;2023-04-21T00:11:08;66518.09;;;0.00;nan
9091;BME280;4581;42.416;25.598;2023-04-21T00:13:34;66521.13;;;0.00;nan
9091;BME280;4581;42.416;25.598;2023-04-21T00:16:02;66515.03;;;0.00;nan
9091;BME280;4581;42.416;25.598;2023-04-21T00:18:29;66519.63;;;0.00;nan
9091;BME280;4581;42.416;25.598;2023-04-21T00:20:55;66511.97;;;0.00;nan
9091;BME280;4581;42.416;25.598;2023-04-21T00:23:22;66513.50;;;0.00;nan
9091;BME280;4581;42.416;25.598;2023-04-21T00:25:49;66519.63;;;0.00;nan
9091;BME280;4581;42.416;25.598;2023-04-21T00:28:16;66530.28;;;0.00;nan
9091;BME280;4581;42.416;25.598;2023-04-21T00:30:42;66533.34;;;0.00;nan
9091;BME280;4581;42.416;25.598;2023-04-21T00:33:09;66544.03;;;0.00;nan
9091;BME280;4581;42.416;25.598;2023-04-21T00:35:36;66551.66;;;0.00;nan
9091;BME280;4581;42.416;25.598;2023-04-21T00:38:02;66556.22;;;0.00;nan
9091;BME280;4581;42.416;25.598;2023-04-21T00:40:29;66560.81;;;0.00;nan
9091;BME280;4581;42.416;25.598;2023-04-21T00:42:56;66562.34;;;0.00;nan
9091;BME280;4581;42.416;25.598;2023-04-21T00:45:22;66568.44;;;0.00;nan
9091;BME280;4581;42.416;25.598;2023-04-21T00:47:49;66573.03;;;0.00;nan
9091;BME280;4581;42.416;25.598;2023-04-21T00:50:16;66577.59;;;0.00;nan
9091;BME280;4581;42.416;25.598;2023-04-21T00:52:43;66580.66;;;0.00;nan
9091;BME280;4581;42.416;25.598;2023-04-21T00:55:13;66583.69;;;0.00;nan
9091;BME280;4581;42.416;25.598;2023-04-21T00:57:40;66583.69;;;0.00;nan
9091;BME280;4581;42.416;25.598;2023-04-21T01:00:07;66588.28;;;0.00;nan
9091;BME280;4581;42.416;25.598;2023-04-21T01:02:38;66586.75;;;0.00;nan
9091;BME280;4581;42.416;25.598;2023-04-21T01:05:05;66595.91;;;0.00;nan
9091;BME280;4581;42.416;25.598;2023-04-21T01:07:36;66600.47;;;0.00;nan
9091;BME280;4581;42.416;25.598;2023-04-21T01:10:03;66594.38;;;0.00;nan
9091;BME280;4581;42.416;25.598;2023-04-21T01:12:30;66592.84;;;0.00;nan
9091;BME280;4581;42.416;25.598;2023-04-21T01:14:57;66598.97;;;0.00;nan
9091;BME280;4581;42.416;25.598;2023-04-21T01:17:24;66602.00;;;0.00;nan
9091;BME280;4581;42.416;25.598;2023-04-21T01:19:52;66605.06;;;0.00;nan
9091;BME280;4581;42.416;25.598;2023-04-21T01:22:21;66608.13;;;0.00;nan
9091;BME280;4581;42.416;25.598;2023-04-21T01:24:48;66605.06;;;0.00;nan
9091;BME280;4581;42.416;25.598;2023-04-21T01:27:17;66611.16;;;0.00;nan
9091;BME280;4581;42.416;25.598;2023-04-21T01:29:46;66609.63;;;0.00;nan
9091;BME280;4581;42.416;25.598;2023-04-21T01:32:19;66602.00;;;0.00;nan
9091;BME280;4581;42.416;25.598;2023-04-21T01:34:47;66606.59;;;0.00;nan
9091;BME280;4581;42.416;25.598;2023-04-21T01:37:16;66598.97;;;0.00;nan
9091;BME280;4581;42.416;25.598;2023-04-21T01:39:47;66605.06;;;0.00;nan
9091;BME280;4581;42.416;25.598;2023-04-21T01:42:17;66605.06;;;0.00;nan
9091;BME280;4581;42.416;25.598;2023-04-21T01:44:44;66608.13;;;0.00;nan
9091;BME280;4581;42.416;25.598;2023-04-21T01:47:12;66608.13;;;0.00;nan
9091;BME280;4581;42.416;25.598;2023-04-21T01:49:39;66617.28;;;0.00;nan
9091;BME280;4581;42.416;25.598;2023-04-21T01:52:06;66615.75;;;0.00;nan
9091;BME280;4581;42.416;25.598;2023-04-21T01:54:33;66615.75;;;0.00;nan
9091;BME280;4581;42.416;25.598;2023-04-21T01:57:00;66624.91;;;0.00;nan
9091;BME280;4581;42.416;25.598;2023-04-21T01:59:27;66623.38;;;0.00;nan
9091;BME280;4581;42.416;25.598;2023-04-21T02:01:54;66627.94;;;0.00;nan
9091;BME280;4581;42.416;25.598;2023-04-21T02:04:21;66624.91;;;0.00;nan
9091;BME280;4581;42.416;25.598;2023-04-21T02:06:48;66637.09;;;0.00;nan
9091;BME280;4581;42.416;25.598;2023-04-21T02:09:15;66626.44;;;0.00;nan
9091;BME280;4581;42.416;25.598;2023-04-21T02:11:42;66629.47;;;0.00;nan
9091;BME280;4581;42.416;25.598;2023-04-21T02:14:08;66635.59;;;0.00;nan
9091;BME280;4581;42.416;25.598;2023-04-21T02:16:35;66634.06;;;0.00;nan
9091;BME280;4581;42.416;25.598;2023-04-21T02:19:02;66627.94;;;0.00;nan
9091;BME280;4581;42.416;25.598;2023-04-21T02:21:28;66626.44;;;0.00;nan
9091;BME280;4581;42.416;25.598;2023-04-21T02:23:55;66624.91;;;0.00;nan
9091;BME280;4581;42.416;25.598;2023-04-21T02:26:22;66614.22;;;0.00;nan
9091;BME280;4581;42.416;25.598;2023-04-21T02:28:49;66618.78;;;0.00;nan
9091;BME280;4581;42.416;25.598;2023-04-21T02:31:17;66620.31;;;0.00;nan
9091;BME280;4581;42.416;25.598;2023-04-21T02:33:44;66623.38;;;0.00;nan
9091;BME280;4581;42.416;25.598;2023-04-21T02:36:11;66627.94;;;0.00;nan
9091;BME280;4581;42.416;25.598;2023-04-21T02:38:38;66623.38;;;0.00;nan
9091;BME280;4581;42.416;25.598;2023-04-21T02:41:05;66623.38;;;0.00;nan
9091;BME280;4581;42.416;25.598;2023-04-21T02:43:31;66632.53;;;0.00;nan
9091;BME280;4581;42.416;25.598;2023-04-21T02:45:58;66627.94;;;0.00;nan
9091;BME280;4581;42.416;25.598;2023-04-21T02:48:25;66635.59;;;0.00;nan
9091;BME280;4581;42.416;25.598;2023-04-21T02:50:52;66643.22;;;0.00;nan
9091;BME280;4581;42.416;25.598;2023-04-21T02:53:19;66641.69;;;0.00;nan
9091;BME280;4581;42.416;25.598;2023-04-21T02:55:46;66640.16;;;0.00;nan
9091;BME280;4581;42.416;25.598;2023-04-21T02:58:13;66644.72;;;0.00;nan
9091;BME280;4581;42.416;25.598;2023-04-21T03:00:40;66649.31;;;0.00;nan
9091;BME280;4581;42.416;25.598;2023-04-21T03:03:07;66656.94;;;0.00;nan
9091;BME280;4581;42.416;25.598;2023-04-21T03:05:34;66652.38;;;0.00;nan
9091;BME280;4581;42.416;25.598;2023-04-21T03:08:01;66653.88;;;0.00;nan
9091;BME280;4581;42.416;25.598;2023-04-21T03:10:28;66650.84;;;0.00;nan
9091;BME280;4581;42.416;25.598;2023-04-21T03:12:55;66656.94;;;0.00;nan
9091;BME280;4581;42.416;25.598;2023-04-21T03:15:21;66658.47;;;0.00;nan
9091;BME280;4581;42.416;25.598;2023-04-21T03:17:49;66669.16;;;0.00;nan
9091;BME280;4581;42.416;25.598;2023-04-21T03:20:16;66666.09;;;0.00;nan
9091;BME280;4581;42.416;25.598;2023-04-21T03:22:43;66670.69;;;0.00;nan
9091;BME280;4581;42.416;25.598;2023-04-21T03:25:10;66666.09;;;0.00;nan
9091;BME280;4581;42.416;25.598;2023-04-21T03:27:37;66669.16;;;0.00;nan
9091;BME280;4581;42.416;25.598;2023-04-21T03:30:04;66673.72;;;0.00;nan
9091;BME280;4581;42.416;25.598;2023-04-21T03:32:32;66678.31;;;0.00;nan
9091;BME280;4581;42.416;25.598;2023-04-21T03:34:59;66670.69;;;0.00;nan
9091;BME280;4581;42.416;25.598;2023-04-21T03:37:25;66673.72;;;0.00;nan
9091;BME280;4581;42.416;25.598;2023-04-21T03:39:52;66669.16;;;0.00;nan
9091;BME280;4581;42.416;25.598;2023-04-21T03:42:19;66678.31;;;0.00;nan
9091;BME280;4581;42.416;25.598;2023-04-21T03:44:46;66678.31;;;0.00;nan
9091;BME280;4581;42.416;25.598;2023-04-21T03:47:12;66689.00;;;0.00;nan
9091;BME280;4581;42.416;25.598;2023-04-21T03:49:39;66684.41;;;0.00;nan
9091;BME280;4581;42.416;25.598;2023-04-21T03:52:05;66687.47;;;0.00;nan
9091;BME280;4581;42.416;25.598;2023-04-21T03:54:32;66687.47;;;0.00;nan
9091;BME280;4581;42.416;25.598;2023-04-21T03:56:59;66689.00;;;0.00;nan
9091;BME280;4581;42.416;25.598;2023-04-21T03:59:26;66682.88;;;0.00;nan
9091;BME280;4581;42.416;25.598;2023-04-21T04:01:52;66685.94;;;0.00;nan
9091;BME280;4581;42.416;25.598;2023-04-21T04:04:19;66678.31;;;0.00;nan
9091;BME280;4581;42.416;25.598;2023-04-21T04:06:46;66681.34;;;0.00;nan
9091;BME280;4581;42.416;25.598;2023-04-21T04:09:12;66679.84;;;0.00;nan
9091;BME280;4581;42.416;25.598;2023-04-21T04:11:39;66675.25;;;0.00;nan
9091;BME280;4581;42.416;25.598;2023-04-21T04:14:06;66675.25;;;0.00;nan
9091;BME280;4581;42.416;25.598;2023-04-21T04:16:33;66673.72;;;0.00;nan
9091;BME280;4581;42.416;25.598;2023-04-21T04:19:00;66670.69;;;0.00;nan
9091;BME280;4581;42.416;25.598;2023-04-21T04:21:27;66663.03;;;0.00;nan
9091;BME280;4581;42.416;25.598;2023-04-21T04:23:54;66655.41;;;0.00;nan
9091;BME280;4581;42.416;25.598;2023-04-21T04:26:21;66649.31;;;0.00;nan
9091;BME280;4581;42.416;25.598;2023-04-21T04:28:53;66638.63;;;0.00;nan
9091;BME280;4581;42.416;25.598;2023-04-21T04:31:21;66627.94;;;0.00;nan
9091;BME280;4581;42.416;25.598;2023-04-21T04:33:51;66620.31;;;0.00;nan
9091;BME280;4581;42.416;25.598;2023-04-21T04:36:20;66602.00;;;0.00;nan
9091;BME280;4581;42.416;25.598;2023-04-21T04:38:47;66592.84;;;0.00;nan
9091;BME280;4581;42.416;25.598;2023-04-21T04:41:14;66579.13;;;0.00;nan
9091;BME280;4581;42.416;25.598;2023-04-21T04:43:42;66562.34;;;0.00;nan
9091;BME280;4581;42.416;25.598;2023-04-21T04:46:09;66550.13;;;0.00;nan
9091;BME280;4581;42.416;25.598;2023-04-21T04:48:38;66544.03;;;0.00;nan
9091;BME280;4581;42.416;25.598;2023-04-21T04:51:07;66530.28;;;0.00;nan
9091;BME280;4581;42.416;25.598;2023-04-21T04:53:33;66522.66;;;0.00;nan
9091;BME280;4581;42.416;25.598;2023-04-21T04:56:00;66501.31;;;0.00;nan
9091;BME280;4581;42.416;25.598;2023-04-21T04:58:27;66490.63;;;0.00;nan
9091;BME280;4581;42.416;25.598;2023-04-21T05:00:53;66479.94;;;0.00;nan
9091;BME280;4581;42.416;25.598;2023-04-21T05:03:20;66466.22;;;0.00;nan
9091;BME280;4581;42.416;25.598;2023-04-21T05:05:47;66467.72;;;0.00;nan
9091;BME280;4581;42.416;25.598;2023-04-21T05:08:14;66458.56;;;0.00;nan
9091;BME280;4581;42.416;25.598;2023-04-21T05:10:43;66452.47;;;0.00;nan
9091;BME280;4581;42.416;25.598;2023-04-21T05:13:09;66441.78;;;0.00;nan
9091;BME280;4581;42.416;25.598;2023-04-21T05:15:36;66447.91;;;0.00;nan
9091;BME280;4581;42.416;25.598;2023-04-21T05:18:03;66438.75;;;0.00;nan
9091;BME280;4581;42.416;25.598;2023-04-21T05:20:30;66423.47;;;0.00;nan
9091;BME280;4581;42.416;25.598;2023-04-21T05:22:56;66415.84;;;0.00;nan
9091;BME280;4581;42.416;25.598;2023-04-21T05:25:23;66403.66;;;0.00;nan
9091;BME280;4581;42.416;25.598;2023-04-21T05:27:49;66394.50;;;0.00;nan
9091;BME280;4581;42.416;25.598;2023-04-21T05:30:16;66377.72;;;0.00;nan
9091;BME280;4581;42.416;25.598;2023-04-21T05:32:43;66376.19;;;0.00;nan
9091;BME280;4581;42.416;25.598;2023-04-21T05:35:10;66409.75;;;0.00;nan
9091;BME280;4581;42.416;25.598;2023-04-21T05:37:37;66394.50;;;0.00;nan
9091;BME280;4581;42.416;25.598;2023-04-21T05:40:04;66406.69;;;0.00;nan
9091;BME280;4581;42.416;25.598;2023-04-21T05:42:31;66388.38;;;0.00;nan
9091;BME280;4581;42.416;25.598;2023-04-21T05:44:58;66391.44;;;0.00;nan
9091;BME280;4581;42.416;25.598;2023-04-21T05:47:25;66400.59;;;0.00;nan
9091;BME280;4581;42.416;25.598;2023-04-21T05:49:52;66400.59;;;0.00;nan
9091;BME280;4581;42.416;25.598;2023-04-21T05:52:19;66389.91;;;0.00;nan
9091;BME280;4581;42.416;25.598;2023-04-21T05:54:49;66379.22;;;0.00;nan
9091;BME280;4581;42.416;25.598;2023-04-21T05:57:16;66377.72;;;0.00;nan
9091;BME280;4581;42.416;25.598;2023-04-21T05:59:43;66368.56;;;0.00;nan
9091;BME280;4581;42.416;25.598;2023-04-21T06:02:10;66363.97;;;0.00;nan
9091;BME280;4581;42.416;25.598;2023-04-21T06:04:37;66357.88;;;0.00;nan
9091;BME280;4581;42.416;25.598;2023-04-21T06:07:07;66348.72;;;0.00;nan
9091;BME280;4581;42.416;25.598;2023-04-21T06:09:35;66348.72;;;0.00;nan
9091;BME280;4581;42.416;25.598;2023-04-21T06:12:02;66345.66;;;0.00;nan
9091;BME280;4581;42.416;25.598;2023-04-21T06:14:29;66344.13;;;0.00;nan
9091;BME280;4581;42.416;25.598;2023-04-21T06:16:56;66350.25;;;0.00;nan
9091;BME280;4581;42.416;25.598;2023-04-21T06:19:23;66357.88;;;0.00;nan
9091;BME280;4581;42.416;25.598;2023-04-21T06:21:49;66368.56;;;0.00;nan
9091;BME280;4581;42.416;25.598;2023-04-21T06:24:16;66351.75;;;0.00;nan
9091;BME280;4581;42.416;25.598;2023-04-21T06:26:51;66359.41;;;0.00;nan
9091;BME280;4581;42.416;25.598;2023-04-21T06:29:18;66353.28;;;0.00;nan
9091;BME280;4581;42.416;25.598;2023-04-21T06:31:46;66345.66;;;0.00;nan
9091;BME280;4581;42.416;25.598;2023-04-21T06:34:13;66341.09;;;0.00;nan
9091;BME280;4581;42.416;25.598;2023-04-21T06:36:39;66336.50;;;0.00;nan
9091;BME280;4581;42.416;25.598;2023-04-21T06:39:06;66351.75;;;0.00;nan
9091;BME280;4581;42.416;25.598;2023-04-21T06:41:33;66354.81;;;0.00;nan
9091;BME280;4581;42.416;25.598;2023-04-21T06:43:59;66354.81;;;0.00;nan
9091;BME280;4581;42.416;25.598;2023-04-21T06:46:26;66348.72;;;0.00;nan
9091;BME280;4581;42.416;25.598;2023-04-21T06:48:53;66353.28;;;0.00;nan
9091;BME280;4581;42.416;25.598;2023-04-21T06:51:20;66333.44;;;0.00;nan
9091;BME280;4581;42.416;25.598;2023-04-21T06:53:47;66330.41;;;0.00;nan
9091;BME280;4581;42.416;25.598;2023-04-21T06:56:14;66345.66;;;0.00;nan
9091;BME280;4581;42.416;25.598;2023-04-21T06:58:40;66318.19;;;0.00;nan
9091;BME280;4581;42.416;25.598;2023-04-21T07:01:07;66289.19;;;0.00;nan
9091;BME280;4581;42.416;25.598;2023-04-21T07:03:34;66280.03;;;0.00;nan
9091;BME280;4581;42.416;25.598;2023-04-21T07:06:01;66248.00;;;0.00;nan
9091;BME280;4581;42.416;25.598;2023-04-21T07:08:27;66193.06;;;0.00;nan
9091;BME280;4581;42.416;25.598;2023-04-21T07:10:54;66122.88;;;0.00;nan
9091;BME280;4581;42.416;25.598;2023-04-21T07:13:21;66069.47;;;0.00;nan
9091;BME280;4581;42.416;25.598;2023-04-21T07:15:47;66051.16;;;0.00;nan
9091;BME280;4581;42.416;25.598;2023-04-21T07:18:14;66011.50;;;0.00;nan
9091;BME280;4581;42.416;25.598;2023-04-21T07:20:41;66043.53;;;0.00;nan
9091;BME280;4581;42.416;25.598;2023-04-21T07:23:08;65997.75;;;0.00;nan
9091;BME280;4581;42.416;25.598;2023-04-21T07:25:34;65985.56;;;0.00;nan
9091;BME280;4581;42.416;25.598;2023-04-21T07:28:02;65988.59;;;0.00;nan
9091;BME280;4581;42.416;25.598;2023-04-21T07:30:30;65962.66;;;0.00;nan
9091;BME280;4581;42.416;25.598;2023-04-21T07:32:56;65927.56;;;0.00;nan
9091;BME280;4581;42.416;25.598;2023-04-21T07:35:23;65912.31;;;0.00;nan
9091;BME280;4581;42.416;25.598;2023-04-21T07:37:50;65915.38;;;0.00;nan
9091;BME280;4581;42.416;25.598;2023-04-21T07:40:17;65941.31;;;0.00;nan
9091;BME280;4581;42.416;25.598;2023-04-21T07:42:43;65924.50;;;0.00;nan
9091;BME280;4581;42.416;25.598;2023-04-21T07:45:11;65897.06;;;0.00;nan
9091;BME280;4581;42.416;25.598;2023-04-21T07:47:37;65897.06;;;0.00;nan
9091;BME280;4581;42.416;25.598;2023-04-21T07:50:05;65944.34;;;0.00;nan
9091;BME280;4581;42.416;25.598;2023-04-21T07:52:32;65909.25;;;0.00;nan
9091;BME280;4581;42.416;25.598;2023-04-21T07:54:58;65927.56;;;0.00;nan
9091;BME280;4581;42.416;25.598;2023-04-21T07:57:25;65909.25;;;0.00;nan
9091;BME280;4581;42.416;25.598;2023-04-21T07:59:52;65897.06;;;0.00;nan
9091;BME280;4581;42.416;25.598;2023-04-21T08:02:18;65875.69;;;0.00;nan
9091;BME280;4581;42.416;25.598;2023-04-21T08:04:45;65848.22;;;0.00;nan
9091;BME280;4581;42.416;25.598;2023-04-21T08:07:12;65849.75;;;0.00;nan
9091;BME280;4581;42.416;25.598;2023-04-21T08:09:41;65887.91;;;0.00;nan
9091;BME280;4581;42.416;25.598;2023-04-21T08:12:07;65909.25;;;0.00;nan
9091;BME280;4581;42.416;25.598;2023-04-21T08:14:34;65929.09;;;0.00;nan
9091;BME280;4581;42.416;25.598;2023-04-21T08:17:01;65939.78;;;0.00;nan
9091;BME280;4581;42.416;25.598;2023-04-21T08:19:28;65939.78;;;0.00;nan
9091;BME280;4581;42.416;25.598;2023-04-21T08:21:55;65897.06;;;0.00;nan
9091;BME280;4581;42.416;25.598;2023-04-21T08:24:22;65845.16;;;0.00;nan
9091;BME280;4581;42.416;25.598;2023-04-21T08:26:49;65851.28;;;0.00;nan
9091;BME280;4581;42.416;25.598;2023-04-21T08:29:16;65843.66;;;0.00;nan
9091;BME280;4581;42.416;25.598;2023-04-21T08:31:43;65865.00;;;0.00;nan
9091;BME280;4581;42.416;25.598;2023-04-21T08:34:09;65857.38;;;0.00;nan
9091;BME280;4581;42.416;25.598;2023-04-21T08:36:36;65860.44;;;0.00;nan
9091;BME280;4581;42.416;25.598;2023-04-21T08:39:03;65860.44;;;0.00;nan
9091;BME280;4581;42.416;25.598;2023-04-21T08:41:30;65901.63;;;0.00;nan
9091;BME280;4581;42.416;25.598;2023-04-21T08:43:57;65903.16;;;0.00;nan
9091;BME280;4581;42.416;25.598;2023-04-21T08:46:24;65897.06;;;0.00;nan
9091;BME280;4581;42.416;25.598;2023-04-21T08:48:53;65892.47;;;0.00;nan
9091;BME280;4581;42.416;25.598;2023-04-21T08:51:22;65923.00;;;0.00;nan
9091;BME280;4581;42.416;25.598;2023-04-21T08:53:49;65900.09;;;0.00;nan
9091;BME280;4581;42.416;25.598;2023-04-21T08:56:16;65904.69;;;0.00;nan
9091;BME280;4581;42.416;25.598;2023-04-21T08:58:43;65895.53;;;0.00;nan
9091;BME280;4581;42.416;25.598;2023-04-21T09:01:09;65884.84;;;0.00;nan
9091;BME280;4581;42.416;25.598;2023-04-21T09:03:37;65831.44;;;0.00;nan
9091;BME280;4581;42.416;25.598;2023-04-21T09:06:07;65781.09;;;0.00;nan
9091;BME280;4581;42.416;25.598;2023-04-21T09:08:41;65718.53;;;0.00;nan
9091;BME280;4581;42.416;25.598;2023-04-21T09:11:12;65651.38;;;0.00;nan
9091;BME280;4581;42.416;25.598;2023-04-21T09:13:41;65594.94;;;0.00;nan
9091;BME280;4581;42.416;25.598;2023-04-21T09:16:19;65544.56;;;0.00;nan
9091;BME280;4581;42.416;25.598;2023-04-21T09:18:47;65527.78;;;0.00;nan
9091;BME280;4581;42.416;25.598;2023-04-21T09:21:17;65506.41;;;0.00;nan
9091;BME280;4581;42.416;25.598;2023-04-21T09:26:14;65662.06;;;0.00;nan
9091;BME280;4581;42.416;25.598;2023-04-21T09:28:46;65662.06;;;0.00;nan
9091;BME280;4581;42.416;25.598;2023-04-21T09:31:17;65695.63;;;0.00;nan
9091;BME280;4581;42.416;25.598;2023-04-21T09:33:52;65677.31;;;0.00;nan
9091;BME280;4581;42.416;25.598;2023-04-21T09:36:26;65657.47;;;0.00;nan
9091;BME280;4581;42.416;25.598;2023-04-21T09:41:40;65671.22;;;0.00;nan
9091;BME280;4581;42.416;25.598;2023-04-21T09:44:08;65675.78;;;0.00;nan
9091;BME280;4581;42.416;25.598;2023-04-21T09:46:35;65681.91;;;0.00;nan
9091;BME280;4581;42.416;25.598;2023-04-21T09:49:03;65681.91;;;0.00;nan
9091;BME280;4581;42.416;25.598;2023-04-21T09:51:30;65692.59;;;0.00;nan
9091;BME280;4581;42.416;25.598;2023-04-21T09:54:19;65683.44;;;0.00;nan
9091;BME280;4581;42.416;25.598;2023-04-21T09:57:00;65707.84;;;0.00;nan
9091;BME280;4581;42.416;25.598;2023-04-21T09:59:35;65698.69;;;0.00;nan
9091;BME280;4581;42.416;25.598;2023-04-21T10:02:07;65675.78;;;0.00;nan
9091;BME280;4581;42.416;25.598;2023-04-21T10:04:35;65701.75;;;0.00;nan
9091;BME280;4581;42.416;25.598;2023-04-21T10:07:05;65715.47;;;0.00;nan
9091;BME280;4581;42.416;25.598;2023-04-21T10:09:46;65732.25;;;0.00;nan
9091;BME280;4581;42.416;25.598;2023-04-21T10:12:14;65732.25;;;0.00;nan
9091;BME280;4581;42.416;25.598;2023-04-21T10:14:42;65710.88;;;0.00;nan
9091;BME280;4581;42.416;25.598;2023-04-21T10:17:09;65706.31;;;0.00;nan
9091;BME280;4581;42.416;25.598;2023-04-21T10:19:52;65736.84;;;0.00;nan
9091;BME280;4581;42.416;25.598;2023-04-21T10:22:46;65755.16;;;0.00;nan
9091;BME280;4581;42.416;25.598;2023-04-21T10:25:22;65750.56;;;0.00;nan
9091;BME280;4581;42.416;25.598;2023-04-21T10:27:49;65697.16;;;0.00;nan
9091;BME280;4581;42.416;25.598;2023-04-21T10:30:23;65613.22;;;0.00;nan
9091;BME280;4581;42.416;25.598;2023-04-21T10:33:04;65552.19;;;0.00;nan
9091;BME280;4581;42.416;25.598;2023-04-21T10:36:00;65590.34;;;0.00;nan
9091;BME280;4581;42.416;25.598;2023-04-21T10:38:41;65588.81;;;0.00;nan
9091;BME280;4581;42.416;25.598;2023-04-21T10:41:28;65597.97;;;0.00;nan
9091;BME280;4581;42.416;25.598;2023-04-21T10:44:12;65613.22;;;0.00;nan
9091;BME280;4581;42.416;25.598;2023-04-21T10:46:49;65654.44;;;0.00;nan
9091;BME280;4581;42.416;25.598;2023-04-21T10:49:27;65695.63;;;0.00;nan
9091;BME280;4581;42.416;25.598;2023-04-21T10:54:28;65720.03;;;0.00;nan
9091;BME280;4581;42.416;25.598;2023-04-21T10:56:58;65732.25;;;0.00;nan
9091;BME280;4581;42.416;25.598;2023-04-21T10:59:27;65736.84;;;0.00;nan
9091;BME280;4581;42.416;25.598;2023-04-21T11:01:54;65762.78;;;0.00;nan
9091;BME280;4581;42.416;25.598;2023-04-21T11:04:21;65794.81;;;0.00;nan
9091;BME280;4581;42.416;25.598;2023-04-21T11:07:11;65796.34;;;0.00;nan
9091;BME280;4581;42.416;25.598;2023-04-21T11:09:39;65778.03;;;0.00;nan
9091;BME280;4581;42.416;25.598;2023-04-21T11:12:12;65746.00;;;0.00;nan
9091;BME280;4581;42.416;25.598;2023-04-21T11:14:40;65739.88;;;0.00;nan
9091;BME280;4581;42.416;25.598;2023-04-21T11:17:17;65752.09;;;0.00;nan
9091;BME280;4581;42.416;25.598;2023-04-21T11:19:46;65744.47;;;0.00;nan
9091;BME280;4581;42.416;25.598;2023-04-21T11:22:15;65736.84;;;0.00;nan
9091;BME280;4581;42.416;25.598;2023-04-21T11:24:46;65741.41;;;0.00;nan
9091;BME280;4581;42.416;25.598;2023-04-21T11:27:13;65794.81;;;0.00;nan
9091;BME280;4581;42.416;25.598;2023-04-21T11:29:41;65842.13;;;0.00;nan
9091;BME280;4581;42.416;25.598;2023-04-21T11:32:08;65894.00;;;0.00;nan
9091;BME280;4581;42.416;25.598;2023-04-21T11:34:38;65903.16;;;0.00;nan
9091;BME280;4581;42.416;25.598;2023-04-21T11:37:12;65948.94;;;0.00;nan
9091;BME280;4581;42.416;25.598;2023-04-21T11:39:40;65999.28;;;0.00;nan
9091;BME280;4581;42.416;25.598;2023-04-21T11:42:07;66025.22;;;0.00;nan
9091;BME280;4581;42.416;25.598;2023-04-21T11:44:41;66035.91;;;0.00;nan
9091;BME280;4581;42.416;25.598;2023-04-21T11:47:15;66029.81;;;0.00;nan
9091;BME280;4581;42.416;25.598;2023-04-21T11:49:47;66019.13;;;0.00;nan
9091;BME280;4581;42.416;25.598;2023-04-21T11:54:47;65971.81;;;0.00;nan
9091;BME280;4581;42.416;25.598;2023-04-21T11:57:17;65948.94;;;0.00;nan
9091;BME280;4581;42.416;25.598;2023-04-21T11:59:45;65927.56;;;0.00;nan
9091;BME280;4581;42.416;25.598;2023-04-21T12:02:21;65907.72;;;0.00;nan
9091;BME280;4581;42.416;25.598;2023-04-21T12:05:03;65857.38;;;0.00;nan
9091;BME280;4581;42.416;25.598;2023-04-21T12:07:42;65788.72;;;0.00;nan
9091;BME280;4581;42.416;25.598;2023-04-21T12:10:10;65756.66;;;0.00;nan
9091;BME280;4581;42.416;25.598;2023-04-21T12:12:38;65727.69;;;0.00;nan
9091;BME280;4581;42.416;25.598;2023-04-21T12:15:06;65712.41;;;0.00;nan
9091;BME280;4581;42.416;25.598;2023-04-21T12:17:46;65704.78;;;0.00;nan
9091;BME280;4581;42.416;25.598;2023-04-21T12:20:18;65695.63;;;0.00;nan
9091;BME280;4581;42.416;25.598;2023-04-21T12:22:45;65717.00;;;0.00;nan
9091;BME280;4581;42.416;25.598;2023-04-21T12:25:12;65723.09;;;0.00;nan
9091;BME280;4581;42.416;25.598;2023-04-21T12:30:15;65665.13;;;0.00;nan
9091;BME280;4581;42.416;25.598;2023-04-21T12:32:42;65666.63;;;0.00;nan
9091;BME280;4581;42.416;25.598;2023-04-21T12:35:09;65674.28;;;0.00;nan
9091;BME280;4581;42.416;25.598;2023-04-21T12:37:36;65651.38;;;0.00;nan
9091;BME280;4581;42.416;25.598;2023-04-21T12:40:03;65613.22;;;0.00;nan
9091;BME280;4581;42.416;25.598;2023-04-21T12:42:30;65587.28;;;0.00;nan
9091;BME280;4581;42.416;25.598;2023-04-21T12:44:57;65597.97;;;0.00;nan
9091;BME280;4581;42.416;25.598;2023-04-21T12:47:24;65655.97;;;0.00;nan
9091;BME280;4581;42.416;25.598;2023-04-21T12:49:51;65672.75;;;0.00;nan
9091;BME280;4581;42.416;25.598;2023-04-21T12:52:17;65665.13;;;0.00;nan
9091;BME280;4581;42.416;25.598;2023-04-21T12:54:44;65710.88;;;0.00;nan
9091;BME280;4581;42.416;25.598;2023-04-21T12:57:11;65671.22;;;0.00;nan
9091;BME280;4581;42.416;25.598;2023-04-21T12:59:37;65646.81;;;0.00;nan
9091;BME280;4581;42.416;25.598;2023-04-21T13:02:05;65640.69;;;0.00;nan
9091;BME280;4581;42.416;25.598;2023-04-21T13:04:32;65646.81;;;0.00;nan
9091;BME280;4581;42.416;25.598;2023-04-21T13:06:59;65663.59;;;0.00;nan
9091;BME280;4581;42.416;25.598;2023-04-21T13:09:26;65660.53;;;0.00;nan
9091;BME280;4581;42.416;25.598;2023-04-21T13:11:52;65671.22;;;0.00;nan
9091;BME280;4581;42.416;25.598;2023-04-21T13:14:19;65677.31;;;0.00;nan
9091;BME280;4581;42.416;25.598;2023-04-21T13:16:46;65717.00;;;0.00;nan
9091;BME280;4581;42.416;25.598;2023-04-21T13:19:13;65744.47;;;0.00;nan
9091;BME280;4581;42.416;25.598;2023-04-21T13:21:39;65767.34;;;0.00;nan
9091;BME280;4581;42.416;25.598;2023-04-21T13:24:07;65759.72;;;0.00;nan
9091;BME280;4581;42.416;25.598;2023-04-21T13:26:33;65796.34;;;0.00;nan
9091;BME280;4581;42.416;25.598;2023-04-21T13:29:02;65782.59;;;0.00;nan
9091;BME280;4581;42.416;25.598;2023-04-21T13:31:29;65761.25;;;0.00;nan
9091;BME280;4581;42.416;25.598;2023-04-21T13:33:56;65767.34;;;0.00;nan
9091;BME280;4581;42.416;25.598;2023-04-21T13:36:23;65776.50;;;0.00;nan
9091;BME280;4581;42.416;25.598;2023-04-21T13:38:49;65796.34;;;0.00;nan
9091;BME280;4581;42.416;25.598;2023-04-21T13:41:19;65811.59;;;0.00;nan
9091;BME280;4581;42.416;25.598;2023-04-21T13:43:46;65796.34;;;0.00;nan
9091;BME280;4581;42.416;25.598;2023-04-21T13:46:13;65796.34;;;0.00;nan
9091;BME280;4581;42.416;25.598;2023-04-21T13:48:40;65796.34;;;0.00;nan
9091;BME280;4581;42.416;25.598;2023-04-21T13:51:07;65796.34;;;0.00;nan
9091;BME280;4581;42.416;25.598;2023-04-21T13:53:33;65796.34;;;0.00;nan
9091;BME280;4581;42.416;25.598;2023-04-21T13:56:00;65828.38;;;0.00;nan
9091;BME280;4581;42.416;25.598;2023-04-21T13:58:27;65845.16;;;0.00;nan
9091;BME280;4581;42.416;25.598;2023-04-21T14:00:56;65872.63;;;0.00;nan
9091;BME280;4581;42.416;25.598;2023-04-21T14:03:22;65880.25;;;0.00;nan